sensor_id;sensor_type;location;lat;lon;timestamp;pressure;altitude;pressure_sealevel;temperature;humidity
70072;BME280;57434;42.794;23.302;2022-07-22T00:02:11;95486.31;;;16.54;56.43
70072;BME280;57434;42.794;23.302;2022-07-22T00:04:36;95389.41;;;16.10;56.23
70072;BME280;57434;42.794;23.302;2022-07-22T00:07:02;95515.78;;;16.83;56.33
70072;BME280;57434;42.794;23.302;2022-07-22T00:09:29;95487.00;;;16.79;55.86
70072;BME280;57434;42.794;23.302;2022-07-22T00:11:54;95714.13;;;18.14;56.36
70072;BME280;57434;42.794;23.302;2022-07-22T00:14:20;95710.38;;;18.06;56.37
70072;BME280;57434;42.794;23.302;2022-07-22T00:16:46;95730.53;;;17.71;56.99
70072;BME280;57434;42.794;23.302;2022-07-22T00:19:12;95696.25;;;17.50;57.98
70072;BME280;57434;42.794;23.302;2022-07-22T00:21:38;95534.03;;;16.07;58.71
70072;BME280;57434;42.794;23.302;2022-07-22T00:24:04;95395.47;;;15.34;58.57
70072;BME280;57434;42.794;23.302;2022-07-22T00:26:30;95705.38;;;17.62;57.97
70072;BME280;57434;42.794;23.302;2022-07-22T00:28:56;95691.00;;;17.59;57.83
70072;BME280;57434;42.794;23.302;2022-07-22T00:31:22;95524.41;;;16.15;58.35
70072;BME280;57434;42.794;23.302;2022-07-22T00:33:48;95595.38;;;16.42;58.61
70072;BME280;57434;42.794;23.302;2022-07-22T00:36:14;95593.00;;;16.46;58.55
70072;BME280;57434;42.794;23.302;2022-07-22T00:38:40;95484.38;;;16.06;58.46
70072;BME280;57434;42.794;23.302;2022-07-22T00:41:06;95565.19;;;16.87;58.11
70072;BME280;57434;42.794;23.302;2022-07-22T00:43:53;95702.31;;;17.41;59.72
70072;BME280;57434;42.794;23.302;2022-07-22T00:46:19;95476.97;;;15.78;58.97
70072;BME280;57434;42.794;23.302;2022-07-22T00:48:45;95643.00;;;16.86;59.24
70072;BME280;57434;42.794;23.302;2022-07-22T00:51:11;95527.00;;;16.13;59.52
70072;BME280;57434;42.794;23.302;2022-07-22T00:53:37;95552.44;;;16.38;58.99
70072;BME280;57434;42.794;23.302;2022-07-22T00:56:03;95471.56;;;15.80;58.61
70072;BME280;57434;42.794;23.302;2022-07-22T00:58:29;95758.59;;;17.55;59.04
70072;BME280;57434;42.794;23.302;2022-07-22T01:00:55;95470.50;;;15.83;58.45
70072;BME280;57434;42.794;23.302;2022-07-22T01:03:21;95566.28;;;16.22;59.32
70072;BME280;57434;42.794;23.302;2022-07-22T01:05:47;95587.00;;;15.52;61.57
70072;BME280;57434;42.794;23.302;2022-07-22T01:08:13;95608.53;;;15.90;60.74
70072;BME280;57434;42.794;23.302;2022-07-22T01:10:39;95734.00;;;16.53;61.25
70072;BME280;57434;42.794;23.302;2022-07-22T01:13:05;95599.88;;;15.47;60.33
70072;BME280;57434;42.794;23.302;2022-07-22T01:15:31;95547.63;;;15.30;59.39
70072;BME280;57434;42.794;23.302;2022-07-22T01:17:58;95642.06;;;15.81;58.85
70072;BME280;57434;42.794;23.302;2022-07-22T01:20:24;95519.59;;;15.32;58.47
70072;BME280;57434;42.794;23.302;2022-07-22T01:22:51;95459.44;;;15.07;58.14
70072;BME280;57434;42.794;23.302;2022-07-22T01:25:17;95608.78;;;15.92;58.56
70072;BME280;57434;42.794;23.302;2022-07-22T01:27:43;95565.84;;;15.64;58.67
70072;BME280;57434;42.794;23.302;2022-07-22T01:30:09;95581.00;;;15.61;59.47
70072;BME280;57434;42.794;23.302;2022-07-22T01:32:36;95416.31;;;14.76;59.38
70072;BME280;57434;42.794;23.302;2022-07-22T01:35:02;95753.75;;;16.88;58.95
70072;BME280;57434;42.794;23.302;2022-07-22T01:37:28;95711.34;;;16.53;59.54
70072;BME280;57434;42.794;23.302;2022-07-22T01:39:54;95332.78;;;13.33;61.42
70072;BME280;57434;42.794;23.302;2022-07-22T01:42:20;95744.88;;;16.49;60.49
70072;BME280;57434;42.794;23.302;2022-07-22T01:44:46;95595.78;;;15.78;59.83
70072;BME280;57434;42.794;23.302;2022-07-22T01:47:12;95656.06;;;15.68;60.71
70072;BME280;57434;42.794;23.302;2022-07-22T01:49:37;95576.84;;;15.38;59.97
70072;BME280;57434;42.794;23.302;2022-07-22T01:52:04;95738.75;;;16.15;60.42
70072;BME280;57434;42.794;23.302;2022-07-22T01:54:30;95745.41;;;15.87;61.05
70072;BME280;57434;42.794;23.302;2022-07-22T01:56:56;95528.59;;;14.53;60.69
70072;BME280;57434;42.794;23.302;2022-07-22T01:59:22;95549.88;;;14.60;60.45
70072;BME280;57434;42.794;23.302;2022-07-22T02:01:48;95472.38;;;14.14;61.01
70072;BME280;57434;42.794;23.302;2022-07-22T02:04:14;95603.53;;;15.07;61.00
70072;BME280;57434;42.794;23.302;2022-07-22T02:06:40;95640.44;;;15.55;60.70
70072;BME280;57434;42.794;23.302;2022-07-22T02:09:06;95563.38;;;14.84;60.92
70072;BME280;57434;42.794;23.302;2022-07-22T02:11:32;95588.94;;;14.97;61.54
70072;BME280;57434;42.794;23.302;2022-07-22T02:13:58;95749.31;;;16.14;61.45
70072;BME280;57434;42.794;23.302;2022-07-22T02:16:23;95597.44;;;15.33;60.69
70072;BME280;57434;42.794;23.302;2022-07-22T02:18:50;95754.19;;;16.44;60.19
70072;BME280;57434;42.794;23.302;2022-07-22T02:21:16;95593.75;;;15.43;59.77
70072;BME280;57434;42.794;23.302;2022-07-22T02:23:42;95648.78;;;15.78;59.73
70072;BME280;57434;42.794;23.302;2022-07-22T02:26:08;95515.81;;;14.88;59.92
70072;BME280;57434;42.794;23.302;2022-07-22T02:28:34;95500.53;;;14.72;60.22
70072;BME280;57434;42.794;23.302;2022-07-22T02:31:00;95585.06;;;15.06;61.31
70072;BME280;57434;42.794;23.302;2022-07-22T02:33:26;95762.03;;;15.97;61.86
70072;BME280;57434;42.794;23.302;2022-07-22T02:35:55;95586.97;;;14.86;62.17
70072;BME280;57434;42.794;23.302;2022-07-22T02:38:21;95448.59;;;13.99;62.12
70072;BME280;57434;42.794;23.302;2022-07-22T02:40:47;95752.78;;;15.96;62.50
70072;BME280;57434;42.794;23.302;2022-07-22T02:43:13;95553.72;;;14.63;62.49
70072;BME280;57434;42.794;23.302;2022-07-22T02:45:40;95620.25;;;15.05;62.91
70072;BME280;57434;42.794;23.302;2022-07-22T02:48:06;95378.38;;;13.26;63.21
70072;BME280;57434;42.794;23.302;2022-07-22T02:50:31;95504.66;;;14.24;63.19
70072;BME280;57434;42.794;23.302;2022-07-22T02:53:03;95574.69;;;14.78;63.50
70072;BME280;57434;42.794;23.302;2022-07-22T02:55:29;95612.88;;;14.90;63.13
70072;BME280;57434;42.794;23.302;2022-07-22T02:57:55;95550.28;;;14.29;63.72
70072;BME280;57434;42.794;23.302;2022-07-22T03:00:20;95688.88;;;15.41;64.24
70072;BME280;57434;42.794;23.302;2022-07-22T03:02:46;95470.66;;;14.00;64.34
70072;BME280;57434;42.794;23.302;2022-07-22T03:05:12;95518.63;;;13.95;65.41
70072;BME280;57434;42.794;23.302;2022-07-22T03:07:38;95649.25;;;14.59;65.66
70072;BME280;57434;42.794;23.302;2022-07-22T03:10:04;95577.00;;;14.11;66.15
70072;BME280;57434;42.794;23.302;2022-07-22T03:12:30;95446.75;;;13.38;65.52
70072;BME280;57434;42.794;23.302;2022-07-22T03:14:56;95538.56;;;14.08;65.29
70072;BME280;57434;42.794;23.302;2022-07-22T03:17:22;95681.69;;;14.87;66.09
70072;BME280;57434;42.794;23.302;2022-07-22T03:19:48;95591.03;;;14.39;65.70
70072;BME280;57434;42.794;23.302;2022-07-22T03:22:13;95616.91;;;14.54;65.76
70072;BME280;57434;42.794;23.302;2022-07-22T03:24:39;95573.13;;;14.25;65.23
70072;BME280;57434;42.794;23.302;2022-07-22T03:27:05;95639.72;;;14.62;65.33
70072;BME280;57434;42.794;23.302;2022-07-22T03:29:31;95731.88;;;15.28;65.66
70072;BME280;57434;42.794;23.302;2022-07-22T03:31:57;95612.28;;;14.56;65.60
70072;BME280;57434;42.794;23.302;2022-07-22T03:34:23;95762.47;;;15.71;65.61
70072;BME280;57434;42.794;23.302;2022-07-22T03:36:49;95607.34;;;14.68;64.91
70072;BME280;57434;42.794;23.302;2022-07-22T03:39:15;95598.75;;;14.33;65.69
70072;BME280;57434;42.794;23.302;2022-07-22T03:41:41;95549.25;;;13.46;67.37
70072;BME280;57434;42.794;23.302;2022-07-22T03:44:07;95625.22;;;14.18;67.02
70072;BME280;57434;42.794;23.302;2022-07-22T03:46:33;95792.38;;;15.55;65.44
70072;BME280;57434;42.794;23.302;2022-07-22T03:48:59;95552.09;;;14.26;64.62
70072;BME280;57434;42.794;23.302;2022-07-22T03:51:24;95605.13;;;14.39;64.63
70072;BME280;57434;42.794;23.302;2022-07-22T03:53:50;95592.78;;;14.59;64.35
70072;BME280;57434;42.794;23.302;2022-07-22T03:56:16;95579.44;;;14.53;63.87
70072;BME280;57434;42.794;23.302;2022-07-22T03:58:42;95510.41;;;13.91;63.99
70072;BME280;57434;42.794;23.302;2022-07-22T04:01:08;95482.03;;;14.30;63.41
70072;BME280;57434;42.794;23.302;2022-07-22T04:03:34;95519.66;;;14.44;63.41
70072;BME280;57434;42.794;23.302;2022-07-22T04:05:59;95762.78;;;16.57;62.88
70072;BME280;57434;42.794;23.302;2022-07-22T04:08:25;95678.00;;;16.16;62.22
70072;BME280;57434;42.794;23.302;2022-07-22T04:10:51;95724.69;;;16.58;61.36
70072;BME280;57434;42.794;23.302;2022-07-22T04:13:17;95557.84;;;15.68;61.79
70072;BME280;57434;42.794;23.302;2022-07-22T04:15:43;95628.84;;;16.19;61.31
70072;BME280;57434;42.794;23.302;2022-07-22T04:18:09;95685.25;;;16.84;60.75
70072;BME280;57434;42.794;23.302;2022-07-22T04:20:35;95595.22;;;16.10;60.32
70072;BME280;57434;42.794;23.302;2022-07-22T04:23:01;95594.31;;;15.96;61.65
70072;BME280;57434;42.794;23.302;2022-07-22T04:25:26;95589.56;;;16.10;61.18
70072;BME280;57434;42.794;23.302;2022-07-22T04:27:52;95665.66;;;16.86;60.78
70072;BME280;57434;42.794;23.302;2022-07-22T04:30:18;95692.97;;;17.27;60.10
70072;BME280;57434;42.794;23.302;2022-07-22T04:32:44;95629.34;;;16.66;60.35
70072;BME280;57434;42.794;23.302;2022-07-22T04:35:10;95662.94;;;17.00;60.73
70072;BME280;57434;42.794;23.302;2022-07-22T04:37:36;95741.00;;;17.38;61.33
70072;BME280;57434;42.794;23.302;2022-07-22T04:40:02;95607.22;;;16.40;61.74
70072;BME280;57434;42.794;23.302;2022-07-22T04:42:28;95594.94;;;16.13;62.60
70072;BME280;57434;42.794;23.302;2022-07-22T04:44:54;95607.59;;;16.31;62.28
70072;BME280;57434;42.794;23.302;2022-07-22T04:47:20;95682.47;;;17.22;61.79
70072;BME280;57434;42.794;23.302;2022-07-22T04:49:45;95630.19;;;16.80;61.19
70072;BME280;57434;42.794;23.302;2022-07-22T04:52:11;95664.47;;;17.19;61.66
70072;BME280;57434;42.794;23.302;2022-07-22T04:54:37;95674.34;;;17.32;60.37
70072;BME280;57434;42.794;23.302;2022-07-22T04:57:03;95502.09;;;16.49;60.46
70072;BME280;57434;42.794;23.302;2022-07-22T04:59:29;95690.09;;;17.83;59.95
70072;BME280;57434;42.794;23.302;2022-07-22T05:01:55;95835.84;;;18.55;60.15
70072;BME280;57434;42.794;23.302;2022-07-22T05:04:21;95663.75;;;17.51;61.10
70072;BME280;57434;42.794;23.302;2022-07-22T05:06:47;95682.34;;;17.84;60.00
70072;BME280;57434;42.794;23.302;2022-07-22T05:09:13;95680.72;;;17.88;59.74
70072;BME280;57434;42.794;23.302;2022-07-22T05:11:39;95598.56;;;17.32;60.43
70072;BME280;57434;42.794;23.302;2022-07-22T05:14:05;95817.13;;;18.92;59.72
70072;BME280;57434;42.794;23.302;2022-07-22T05:16:30;95680.16;;;18.22;58.68
70072;BME280;57434;42.794;23.302;2022-07-22T05:18:56;95652.56;;;18.36;57.55
70072;BME280;57434;42.794;23.302;2022-07-22T05:21:22;95706.56;;;19.02;56.99
70072;BME280;57434;42.794;23.302;2022-07-22T05:23:51;95689.28;;;19.13;56.43
70072;BME280;57434;42.794;23.302;2022-07-22T05:26:17;95646.09;;;19.01;55.94
70072;BME280;57434;42.794;23.302;2022-07-22T05:28:43;95527.94;;;18.79;54.72
70072;BME280;57434;42.794;23.302;2022-07-22T05:31:09;95591.44;;;19.63;54.39
70072;BME280;57434;42.794;23.302;2022-07-22T05:33:38;95657.84;;;20.20;52.29
70072;BME280;57434;42.794;23.302;2022-07-22T05:36:04;95691.53;;;20.79;52.11
70072;BME280;57434;42.794;23.302;2022-07-22T05:38:34;95787.91;;;21.73;51.53
70072;BME280;57434;42.794;23.302;2022-07-22T05:41:00;95718.41;;;21.63;49.46
70072;BME280;57434;42.794;23.302;2022-07-22T05:43:26;95748.84;;;22.12;49.29
70072;BME280;57434;42.794;23.302;2022-07-22T05:45:52;95701.06;;;22.12;47.71
70072;BME280;57434;42.794;23.302;2022-07-22T05:48:18;95752.09;;;22.16;48.06
70072;BME280;57434;42.794;23.302;2022-07-22T05:51:10;95603.22;;;21.45;48.21
70072;BME280;57434;42.794;23.302;2022-07-22T05:53:47;95719.38;;;21.66;49.00
70072;BME280;57434;42.794;23.302;2022-07-22T05:56:23;95799.66;;;23.10;47.22
70072;BME280;57434;42.794;23.302;2022-07-22T05:58:57;95692.63;;;21.99;47.52
70072;BME280;57434;42.794;23.302;2022-07-22T06:01:26;95761.91;;;22.58;45.39
70072;BME280;57434;42.794;23.302;2022-07-22T06:03:52;95562.28;;;20.84;47.42
70072;BME280;57434;42.794;23.302;2022-07-22T06:06:21;95505.34;;;20.63;48.08
70072;BME280;57434;42.794;23.302;2022-07-22T06:08:49;95726.19;;;22.06;47.61
70072;BME280;57434;42.794;23.302;2022-07-22T06:11:15;95725.84;;;23.01;44.90
70072;BME280;57434;42.794;23.302;2022-07-22T06:13:41;95811.38;;;24.30;43.89
70072;BME280;57434;42.794;23.302;2022-07-22T06:16:07;95837.19;;;24.71;43.45
70072;BME280;57434;42.794;23.302;2022-07-22T06:18:33;95832.78;;;24.70;42.08
70072;BME280;57434;42.794;23.302;2022-07-22T06:20:59;95795.75;;;25.31;41.31
70072;BME280;57434;42.794;23.302;2022-07-22T06:23:25;95755.38;;;24.29;43.00
70072;BME280;57434;42.794;23.302;2022-07-22T06:25:51;95578.25;;;22.83;43.57
70072;BME280;57434;42.794;23.302;2022-07-22T06:28:20;95666.53;;;24.22;42.56
70072;BME280;57434;42.794;23.302;2022-07-22T06:30:46;95763.25;;;25.04;42.11
70072;BME280;57434;42.794;23.302;2022-07-22T06:33:12;95608.88;;;24.60;41.30
70072;BME280;57434;42.794;23.302;2022-07-22T06:35:39;95616.41;;;24.73;40.46
70072;BME280;57434;42.794;23.302;2022-07-22T06:38:14;95768.06;;;25.60;41.23
70072;BME280;57434;42.794;23.302;2022-07-22T06:40:46;95807.72;;;25.79;41.59
70072;BME280;57434;42.794;23.302;2022-07-22T06:43:11;95702.22;;;25.55;40.82
70072;BME280;57434;42.794;23.302;2022-07-22T06:45:37;95699.25;;;25.80;40.19
70072;BME280;57434;42.794;23.302;2022-07-22T06:48:04;95674.69;;;25.69;39.85
70072;BME280;57434;42.794;23.302;2022-07-22T06:50:30;95780.19;;;26.20;40.31
70072;BME280;57434;42.794;23.302;2022-07-22T06:52:56;95768.31;;;26.07;40.50
70072;BME280;57434;42.794;23.302;2022-07-22T06:55:21;95679.66;;;25.69;40.01
70072;BME280;57434;42.794;23.302;2022-07-22T06:57:47;95668.97;;;26.23;38.13
70072;BME280;57434;42.794;23.302;2022-07-22T07:00:14;95764.06;;;26.88;38.82
70072;BME280;57434;42.794;23.302;2022-07-22T07:02:40;95661.69;;;26.22;37.86
70072;BME280;57434;42.794;23.302;2022-07-22T07:05:06;95671.69;;;26.21;39.58
70072;BME280;57434;42.794;23.302;2022-07-22T07:07:32;95680.09;;;26.92;37.56
70072;BME280;57434;42.794;23.302;2022-07-22T07:09:58;95692.72;;;27.06;37.19
70072;BME280;57434;42.794;23.302;2022-07-22T07:12:24;95623.81;;;26.52;36.90
70072;BME280;57434;42.794;23.302;2022-07-22T07:14:50;95692.56;;;27.04;37.69
70072;BME280;57434;42.794;23.302;2022-07-22T07:17:16;95745.59;;;27.67;36.78
70072;BME280;57434;42.794;23.302;2022-07-22T07:19:41;95688.69;;;27.28;36.34
70072;BME280;57434;42.794;23.302;2022-07-22T07:22:07;95610.75;;;27.07;36.77
70072;BME280;57434;42.794;23.302;2022-07-22T07:24:33;95609.38;;;26.98;36.71
70072;BME280;57434;42.794;23.302;2022-07-22T07:26:59;95705.06;;;27.55;35.93
70072;BME280;57434;42.794;23.302;2022-07-22T07:29:25;95723.50;;;28.48;35.57
70072;BME280;57434;42.794;23.302;2022-07-22T07:31:51;95750.53;;;28.53;34.78
70072;BME280;57434;42.794;23.302;2022-07-22T07:46:44;95702.13;;;28.73;34.45
70072;BME280;57434;42.794;23.302;2022-07-22T07:49:10;95704.19;;;27.91;35.30
70072;BME280;57434;42.794;23.302;2022-07-22T07:51:36;95710.47;;;28.28;35.47
70072;BME280;57434;42.794;23.302;2022-07-22T07:54:02;95796.44;;;29.30;34.64
70072;BME280;57434;42.794;23.302;2022-07-22T07:56:28;95779.53;;;29.05;35.16
70072;BME280;57434;42.794;23.302;2022-07-22T07:58:54;95764.25;;;29.14;33.86
70072;BME280;57434;42.794;23.302;2022-07-22T08:01:20;95796.72;;;29.98;33.75
70072;BME280;57434;42.794;23.302;2022-07-22T08:03:45;95696.91;;;29.12;33.36
70072;BME280;57434;42.794;23.302;2022-07-22T08:06:11;95701.16;;;29.11;30.50
70072;BME280;57434;42.794;23.302;2022-07-22T08:08:37;95698.44;;;29.13;31.96
70072;BME280;57434;42.794;23.302;2022-07-22T08:11:03;95717.78;;;30.07;32.38
70072;BME280;57434;42.794;23.302;2022-07-22T08:13:29;95710.91;;;30.69;31.51
70072;BME280;57434;42.794;23.302;2022-07-22T08:15:55;95671.25;;;30.71;29.89
70072;BME280;57434;42.794;23.302;2022-07-22T08:18:21;95663.59;;;30.19;29.00
70072;BME280;57434;42.794;23.302;2022-07-22T08:20:46;95671.53;;;30.19;30.04
70072;BME280;57434;42.794;23.302;2022-07-22T08:23:12;95781.59;;;31.10;30.41
70072;BME280;57434;42.794;23.302;2022-07-22T08:25:38;95605.53;;;29.82;30.34
70072;BME280;57434;42.794;23.302;2022-07-22T08:28:04;95696.72;;;30.16;30.82
70072;BME280;57434;42.794;23.302;2022-07-22T08:30:30;95669.31;;;30.41;30.68
70072;BME280;57434;42.794;23.302;2022-07-22T08:32:56;95704.25;;;30.89;29.98
70072;BME280;57434;42.794;23.302;2022-07-22T08:35:22;95699.97;;;30.90;29.92
70072;BME280;57434;42.794;23.302;2022-07-22T08:37:48;95712.66;;;31.20;29.81
70072;BME280;57434;42.794;23.302;2022-07-22T08:40:16;95647.31;;;31.54;29.59
70072;BME280;57434;42.794;23.302;2022-07-22T08:42:44;95764.13;;;32.68;29.27
70072;BME280;57434;42.794;23.302;2022-07-22T08:45:11;95713.06;;;32.38;27.33
70072;BME280;57434;42.794;23.302;2022-07-22T08:47:37;95761.22;;;32.29;28.94
70072;BME280;57434;42.794;23.302;2022-07-22T08:50:04;95673.31;;;31.41;29.33
70072;BME280;57434;42.794;23.302;2022-07-22T08:52:30;95756.09;;;32.41;28.41
70072;BME280;57434;42.794;23.302;2022-07-22T08:54:56;95739.91;;;31.27;28.13
70072;BME280;57434;42.794;23.302;2022-07-22T08:57:22;95766.09;;;32.63;28.07
70072;BME280;57434;42.794;23.302;2022-07-22T08:59:49;95764.75;;;32.53;28.64
70072;BME280;57434;42.794;23.302;2022-07-22T09:02:16;95625.91;;;31.48;28.89
70072;BME280;57434;42.794;23.302;2022-07-22T09:05:04;95695.31;;;32.06;29.21
70072;BME280;57434;42.794;23.302;2022-07-22T09:07:42;95761.97;;;32.55;29.45
70072;BME280;57434;42.794;23.302;2022-07-22T09:10:10;95697.56;;;31.22;29.17
70072;BME280;57434;42.794;23.302;2022-07-22T09:12:55;95760.16;;;31.50;29.47
70072;BME280;57434;42.794;23.302;2022-07-22T09:15:36;95756.91;;;31.93;27.72
70072;BME280;57434;42.794;23.302;2022-07-22T09:18:04;95699.97;;;31.62;27.66
70072;BME280;57434;42.794;23.302;2022-07-22T09:20:30;95685.16;;;31.45;28.15
70072;BME280;57434;42.794;23.302;2022-07-22T09:22:57;95755.94;;;32.14;27.86
70072;BME280;57434;42.794;23.302;2022-07-22T09:25:32;95759.44;;;32.75;27.88
70072;BME280;57434;42.794;23.302;2022-07-22T09:30:38;95758.22;;;33.05;27.35
70072;BME280;57434;42.794;23.302;2022-07-22T09:33:06;95764.00;;;33.44;27.25
70072;BME280;57434;42.794;23.302;2022-07-22T09:35:32;95765.69;;;33.63;25.87
70072;BME280;57434;42.794;23.302;2022-07-22T09:38:01;95761.59;;;33.68;26.97
70072;BME280;57434;42.794;23.302;2022-07-22T09:40:29;95767.31;;;34.23;26.06
70072;BME280;57434;42.794;23.302;2022-07-22T09:43:01;95687.28;;;34.24;24.29
70072;BME280;57434;42.794;23.302;2022-07-22T09:45:30;95773.63;;;35.23;22.35
70072;BME280;57434;42.794;23.302;2022-07-22T09:47:57;95751.56;;;35.83;22.34
70072;BME280;57434;42.794;23.302;2022-07-22T09:50:26;95754.41;;;35.99;21.29
70072;BME280;57434;42.794;23.302;2022-07-22T09:52:54;95635.53;;;35.33;21.69
70072;BME280;57434;42.794;23.302;2022-07-22T09:55:22;95661.16;;;35.03;21.19
70072;BME280;57434;42.794;23.302;2022-07-22T09:57:49;95658.66;;;35.13;21.40
70072;BME280;57434;42.794;23.302;2022-07-22T10:00:18;95740.78;;;36.21;20.36
70072;BME280;57434;42.794;23.302;2022-07-22T10:05:16;95600.72;;;35.54;19.58
70072;BME280;57434;42.794;23.302;2022-07-22T10:07:43;95743.88;;;36.25;20.72
70072;BME280;57434;42.794;23.302;2022-07-22T10:10:11;95645.53;;;35.45;20.52
70072;BME280;57434;42.794;23.302;2022-07-22T10:12:37;95738.22;;;36.47;19.75
70072;BME280;57434;42.794;23.302;2022-07-22T10:15:05;95660.13;;;36.50;20.00
70072;BME280;57434;42.794;23.302;2022-07-22T10:17:31;95689.03;;;36.42;19.81
70072;BME280;57434;42.794;23.302;2022-07-22T10:19:58;95743.78;;;36.59;20.32
70072;BME280;57434;42.794;23.302;2022-07-22T10:25:06;95682.16;;;36.53;19.64
70072;BME280;57434;42.794;23.302;2022-07-22T10:27:45;95728.03;;;36.31;19.82
70072;BME280;57434;42.794;23.302;2022-07-22T10:30:29;95624.56;;;35.67;19.27
70072;BME280;57434;42.794;23.302;2022-07-22T10:33:06;95588.09;;;35.83;20.16
70072;BME280;57434;42.794;23.302;2022-07-22T10:35:35;95703.09;;;36.83;19.73
70072;BME280;57434;42.794;23.302;2022-07-22T10:38:06;95639.16;;;36.93;20.15
70072;BME280;57434;42.794;23.302;2022-07-22T10:41:02;95716.69;;;36.94;19.91
70072;BME280;57434;42.794;23.302;2022-07-22T10:43:30;95708.66;;;36.94;19.59
70072;BME280;57434;42.794;23.302;2022-07-22T10:45:58;95663.25;;;36.36;19.48
70072;BME280;57434;42.794;23.302;2022-07-22T10:48:25;95717.84;;;37.44;19.88
70072;BME280;57434;42.794;23.302;2022-07-22T10:50:54;95664.91;;;37.16;19.65
70072;BME280;57434;42.794;23.302;2022-07-22T10:53:23;95708.25;;;37.62;19.29
70072;BME280;57434;42.794;23.302;2022-07-22T11:01:05;95668.75;;;37.03;19.22
70072;BME280;57434;42.794;23.302;2022-07-22T17:52:45;95609.44;;;28.38;nan
70072;BME280;57434;42.794;23.302;2022-07-22T17:55:11;95646.56;;;28.22;nan
70072;BME280;57434;42.794;23.302;2022-07-22T17:57:36;95579.13;;;27.86;nan
70072;BME280;57434;42.794;23.302;2022-07-22T18:00:04;95730.44;;;28.55;nan
70072;BME280;57434;42.794;23.302;2022-07-22T18:02:31;95659.25;;;27.88;nan
70072;BME280;57434;42.794;23.302;2022-07-22T18:04:57;95696.13;;;27.99;nan
70072;BME280;57434;42.794;23.302;2022-07-22T18:07:23;95597.28;;;27.29;nan
70072;BME280;57434;42.794;23.302;2022-07-22T18:09:51;95608.16;;;27.11;nan
70072;BME280;57434;42.794;23.302;2022-07-22T18:12:17;95748.44;;;27.76;nan
70072;BME280;57434;42.794;23.302;2022-07-22T18:14:42;95640.44;;;27.00;nan
70072;BME280;57434;42.794;23.302;2022-07-22T18:17:08;95661.31;;;26.81;nan
70072;BME280;57434;42.794;23.302;2022-07-22T18:19:35;95740.09;;;27.32;nan
70072;BME280;57434;42.794;23.302;2022-07-22T18:22:01;95656.00;;;26.32;nan
70072;BME280;57434;42.794;23.302;2022-07-22T18:24:27;95624.53;;;26.43;nan
70072;BME280;57434;42.794;23.302;2022-07-22T18:26:54;95672.47;;;26.68;nan
70072;BME280;57434;42.794;23.302;2022-07-22T18:29:19;95677.94;;;26.73;nan
70072;BME280;57434;42.794;23.302;2022-07-22T18:31:45;95772.22;;;27.28;nan
70072;BME280;57434;42.794;23.302;2022-07-22T18:34:11;95671.16;;;26.42;nan
70072;BME280;57434;42.794;23.302;2022-07-22T18:36:37;95757.34;;;26.76;nan
70072;BME280;57434;42.794;23.302;2022-07-22T18:39:04;95655.88;;;26.12;nan
70072;BME280;57434;42.794;23.302;2022-07-22T18:41:30;95660.75;;;26.19;nan
70072;BME280;57434;42.794;23.302;2022-07-22T18:43:55;95665.41;;;26.05;nan
70072;BME280;57434;42.794;23.302;2022-07-22T18:46:21;95719.22;;;26.22;nan
70072;BME280;57434;42.794;23.302;2022-07-22T18:48:47;95631.63;;;25.35;nan
70072;BME280;57434;42.794;23.302;2022-07-22T18:51:13;95705.38;;;25.49;nan
70072;BME280;57434;42.794;23.302;2022-07-22T18:53:40;95680.50;;;25.27;nan
70072;BME280;57434;42.794;23.302;2022-07-22T18:56:06;95689.72;;;25.08;nan
70072;BME280;57434;42.794;23.302;2022-07-22T18:58:32;95694.22;;;25.19;nan
70072;BME280;57434;42.794;23.302;2022-07-22T19:00:58;95680.22;;;24.81;nan
70072;BME280;57434;42.794;23.302;2022-07-22T19:03:23;95706.00;;;25.06;nan
70072;BME280;57434;42.794;23.302;2022-07-22T19:05:49;95722.00;;;25.34;nan
70072;BME280;57434;42.794;23.302;2022-07-22T19:08:15;95811.91;;;25.61;nan
70072;BME280;57434;42.794;23.302;2022-07-22T19:10:41;95807.69;;;25.62;nan
70072;BME280;57434;42.794;23.302;2022-07-22T19:13:06;95745.84;;;25.02;nan
70072;BME280;57434;42.794;23.302;2022-07-22T19:15:32;95619.91;;;23.96;nan
70072;BME280;57434;42.794;23.302;2022-07-22T19:17:58;95625.03;;;23.66;nan
70072;BME280;57434;42.794;23.302;2022-07-22T19:20:24;95716.88;;;24.15;nan
70072;BME280;57434;42.794;23.302;2022-07-22T19:22:50;95718.66;;;24.03;nan
70072;BME280;57434;42.794;23.302;2022-07-22T19:25:16;95796.59;;;24.74;nan
70072;BME280;57434;42.794;23.302;2022-07-22T19:27:42;95712.81;;;24.18;nan
70072;BME280;57434;42.794;23.302;2022-07-22T19:30:08;95778.63;;;24.09;nan
70072;BME280;57434;42.794;23.302;2022-07-22T19:32:34;95773.84;;;24.11;nan
70072;BME280;57434;42.794;23.302;2022-07-22T19:35:00;95730.78;;;23.79;nan
70072;BME280;57434;42.794;23.302;2022-07-22T19:37:26;95678.09;;;23.74;nan
70072;BME280;57434;42.794;23.302;2022-07-22T19:39:52;95711.28;;;23.85;nan
70072;BME280;57434;42.794;23.302;2022-07-22T19:42:17;95812.19;;;24.56;nan
70072;BME280;57434;42.794;23.302;2022-07-22T19:44:43;95804.84;;;24.38;nan
70072;BME280;57434;42.794;23.302;2022-07-22T19:47:09;95800.41;;;24.12;nan
70072;BME280;57434;42.794;23.302;2022-07-22T19:49:35;95833.22;;;24.18;nan
70072;BME280;57434;42.794;23.302;2022-07-22T19:52:02;95705.38;;;23.20;nan
70072;BME280;57434;42.794;23.302;2022-07-22T19:54:28;95752.47;;;23.57;nan
70072;BME280;57434;42.794;23.302;2022-07-22T19:56:53;95732.25;;;23.40;nan
70072;BME280;57434;42.794;23.302;2022-07-22T19:59:19;95786.75;;;23.80;nan
70072;BME280;57434;42.794;23.302;2022-07-22T20:01:45;95768.91;;;23.49;nan
70072;BME280;57434;42.794;23.302;2022-07-22T20:04:11;95760.56;;;23.28;nan
70072;BME280;57434;42.794;23.302;2022-07-22T20:06:37;95827.13;;;23.36;nan